SVA542 OEJN-OTHH
Flight info
| Callsign | SVA542 |
|---|---|
| Flight time | 1h 43m |
| Altitude | 37000 |
| Route | EGREP T532 KIA N687 KINIB Z511 GISRA L681 ORLEK |
| Aircraft | B77W/H-SDE1E2E3FGHIJ2J3J4J5M1RWXY/LB1D1 |
Departure
| Time | 2026-05-06 12:19 |
|---|---|
| Airport | King Abdulaziz International Airport (OEJN) |
Arrival
| Time | 2026-05-06 14:03 |
|---|---|
| Airport | Hamad International Airport (OTHH) |
| Time | Latitude | Longitude | Altitude | Speed | Heading |
|---|---|---|---|---|---|
| 2026-05-06 11:51 | 21.66380 | 39.17113 | 41 ft | 0 kts | 97° |
| 2026-05-06 12:11 | 21.66383 | 39.17087 | 41 ft | 4 kts | 102° |
| 2026-05-06 12:12 | 21.66390 | 39.17060 | 41 ft | 4 kts | 112° |
| 2026-05-06 12:12 | 21.66403 | 39.17035 | 38 ft | 4 kts | 134° |
| 2026-05-06 12:12 | 21.66422 | 39.17022 | 39 ft | 2 kts | 178° |
| 2026-05-06 12:12 | 21.66423 | 39.17022 | 39 ft | 0 kts | 178° |
| 2026-05-06 12:15 | 21.66422 | 39.17022 | 39 ft | 1 kts | 178° |
| 2026-05-06 12:15 | 21.66405 | 39.17022 | 36 ft | 4 kts | 181° |
| 2026-05-06 12:16 | 21.66343 | 39.17004 | 41 ft | 12 kts | 207° |
| 2026-05-06 12:16 | 21.66289 | 39.16939 | 41 ft | 12 kts | 246° |
| 2026-05-06 12:16 | 21.66261 | 39.16857 | 41 ft | 12 kts | 250° |
| 2026-05-06 12:16 | 21.66234 | 39.16775 | 41 ft | 12 kts | 250° |
| 2026-05-06 12:17 | 21.66215 | 39.16720 | 41 ft | 12 kts | 250° |
| 2026-05-06 12:17 | 21.66187 | 39.16638 | 40 ft | 12 kts | 250° |
| 2026-05-06 12:17 | 21.66172 | 39.16595 | 40 ft | 0 kts | 249° |
| 2026-05-06 12:17 | 21.66172 | 39.16594 | 40 ft | 0 kts | 249° |
| 2026-05-06 12:18 | 21.66167 | 39.16580 | 39 ft | 8 kts | 249° |
| 2026-05-06 12:18 | 21.66146 | 39.16499 | 39 ft | 12 kts | 274° |
| 2026-05-06 12:18 | 21.66190 | 39.16459 | 38 ft | 0 kts | 339° |
| 2026-05-06 12:19 | 21.66289 | 39.16419 | 38 ft | 53 kts | 340° |
| 2026-05-06 12:19 | 21.66990 | 39.16144 | 40 ft | 160 kts | 339° |
| 2026-05-06 12:19 | 21.68227 | 39.15639 | 627 ft | 203 kts | 339° |
| 2026-05-06 12:19 | 21.69603 | 39.15065 | 1954 ft | 220 kts | 338° |
| 2026-05-06 12:20 | 21.71123 | 39.14459 | 3014 ft | 249 kts | 341° |
| 2026-05-06 12:20 | 21.72790 | 39.13816 | 3733 ft | 255 kts | 342° |
| 2026-05-06 12:20 | 21.74565 | 39.13663 | 4372 ft | 266 kts | 14° |
| 2026-05-06 12:20 | 21.76163 | 39.14654 | 5182 ft | 268 kts | 44° |
| 2026-05-06 12:21 | 21.77505 | 39.16063 | 6016 ft | 273 kts | 44° |
| 2026-05-06 12:21 | 21.78911 | 39.17466 | 6891 ft | 278 kts | 43° |
| 2026-05-06 12:21 | 21.80353 | 39.18886 | 7722 ft | 286 kts | 44° |
| 2026-05-06 12:21 | 21.81848 | 39.20352 | 8439 ft | 295 kts | 44° |
| 2026-05-06 12:22 | 21.83366 | 39.21836 | 9252 ft | 300 kts | 44° |
| 2026-05-06 12:22 | 21.84952 | 39.23385 | 9985 ft | 310 kts | 43° |
| 2026-05-06 12:22 | 21.86582 | 39.24975 | 10463 ft | 327 kts | 43° |
| 2026-05-06 12:22 | 21.88338 | 39.26688 | 10700 ft | 355 kts | 43° |
| 2026-05-06 12:23 | 21.90217 | 39.28519 | 10878 ft | 382 kts | 43° |
| 2026-05-06 12:23 | 21.92255 | 39.30501 | 11221 ft | 402 kts | 43° |
| 2026-05-06 12:23 | 21.94344 | 39.32532 | 12013 ft | 409 kts | 43° |
| 2026-05-06 12:23 | 21.96475 | 39.34602 | 12799 ft | 415 kts | 43° |
| 2026-05-06 12:24 | 21.98638 | 39.36701 | 13650 ft | 419 kts | 43° |
| 2026-05-06 12:24 | 22.00811 | 39.38815 | 14409 ft | 424 kts | 43° |
| 2026-05-06 12:24 | 22.03017 | 39.40962 | 15156 ft | 429 kts | 43° |
| 2026-05-06 12:24 | 22.05244 | 39.43132 | 15885 ft | 434 kts | 43° |
| 2026-05-06 12:25 | 22.07505 | 39.45336 | 16634 ft | 440 kts | 43° |
| 2026-05-06 12:25 | 22.09789 | 39.47563 | 17386 ft | 445 kts | 43° |
| 2026-05-06 12:25 | 22.12098 | 39.49815 | 18146 ft | 450 kts | 43° |
| 2026-05-06 12:25 | 22.14437 | 39.52097 | 18783 ft | 456 kts | 43° |
| 2026-05-06 12:26 | 22.16800 | 39.54404 | 19423 ft | 461 kts | 42° |
| 2026-05-06 12:26 | 22.19157 | 39.56707 | 20027 ft | 466 kts | 42° |
| 2026-05-06 12:26 | 22.21577 | 39.59072 | 20646 ft | 471 kts | 42° |
| 2026-05-06 12:26 | 22.24020 | 39.61459 | 21265 ft | 476 kts | 42° |
| 2026-05-06 12:27 | 22.26484 | 39.63869 | 21863 ft | 481 kts | 41° |
| 2026-05-06 12:27 | 22.28972 | 39.66304 | 22444 ft | 486 kts | 41° |
| 2026-05-06 12:27 | 22.31489 | 39.68769 | 23032 ft | 491 kts | 41° |
| 2026-05-06 12:27 | 22.34030 | 39.71258 | 23571 ft | 496 kts | 41° |
| 2026-05-06 12:28 | 22.36599 | 39.73778 | 24038 ft | 499 kts | 41° |
| 2026-05-06 12:28 | 22.39184 | 39.76314 | 24487 ft | 505 kts | 41° |
| 2026-05-06 12:28 | 22.41798 | 39.78879 | 24885 ft | 511 kts | 41° |
| 2026-05-06 12:28 | 22.44437 | 39.81470 | 25316 ft | 514 kts | 41° |
| 2026-05-06 12:29 | 22.47094 | 39.84077 | 25767 ft | 518 kts | 40° |
| 2026-05-06 12:29 | 22.49796 | 39.86690 | 26191 ft | 522 kts | 40° |
| 2026-05-06 12:29 | 22.52535 | 39.89298 | 26606 ft | 528 kts | 39° |
| 2026-05-06 12:29 | 22.55314 | 39.91926 | 26982 ft | 532 kts | 39° |
| 2026-05-06 12:30 | 22.58106 | 39.94574 | 27413 ft | 536 kts | 39° |
| 2026-05-06 12:30 | 22.60915 | 39.97247 | 27818 ft | 540 kts | 39° |
| 2026-05-06 12:30 | 22.63746 | 39.99949 | 28193 ft | 544 kts | 39° |
| 2026-05-06 12:30 | 22.66590 | 40.02668 | 28537 ft | 548 kts | 39° |
| 2026-05-06 12:31 | 22.69426 | 40.05381 | 28870 ft | 552 kts | 39° |
| 2026-05-06 12:31 | 22.72316 | 40.08148 | 29210 ft | 555 kts | 39° |
| 2026-05-06 12:31 | 22.75214 | 40.10924 | 29514 ft | 559 kts | 39° |
| 2026-05-06 12:31 | 22.78136 | 40.13726 | 29871 ft | 561 kts | 39° |
| 2026-05-06 12:32 | 22.81060 | 40.16532 | 30262 ft | 561 kts | 39° |
| 2026-05-06 12:32 | 22.83981 | 40.19337 | 30649 ft | 561 kts | 39° |
| 2026-05-06 12:32 | 22.86906 | 40.22147 | 31018 ft | 561 kts | 39° |
| 2026-05-06 12:32 | 22.89834 | 40.24960 | 31400 ft | 562 kts | 39° |
| 2026-05-06 12:33 | 22.92766 | 40.27779 | 31714 ft | 564 kts | 39° |
| 2026-05-06 12:33 | 22.95708 | 40.30608 | 32051 ft | 564 kts | 39° |
| 2026-05-06 12:33 | 22.98647 | 40.33438 | 32432 ft | 565 kts | 39° |
| 2026-05-06 12:33 | 23.01584 | 40.36267 | 32767 ft | 565 kts | 39° |
| 2026-05-06 12:34 | 23.04528 | 40.39105 | 33125 ft | 566 kts | 39° |
| 2026-05-06 12:34 | 23.07468 | 40.41940 | 33489 ft | 566 kts | 39° |
| 2026-05-06 12:34 | 23.10383 | 40.44753 | 33820 ft | 567 kts | 39° |
| 2026-05-06 12:34 | 23.13341 | 40.47609 | 34038 ft | 570 kts | 39° |
| 2026-05-06 12:35 | 23.16290 | 40.50461 | 34525 ft | 564 kts | 39° |
| 2026-05-06 12:35 | 23.19210 | 40.53284 | 35028 ft | 559 kts | 39° |
| 2026-05-06 12:35 | 23.22117 | 40.56096 | 35420 ft | 558 kts | 40° |
| 2026-05-06 12:35 | 23.24872 | 40.59068 | 35729 ft | 559 kts | 48° |
| 2026-05-06 12:36 | 23.27245 | 40.62413 | 36009 ft | 560 kts | 56° |
| 2026-05-06 12:36 | 23.29277 | 40.66035 | 36257 ft | 561 kts | 63° |
| 2026-05-06 12:36 | 23.30891 | 40.69886 | 36507 ft | 559 kts | 71° |
| 2026-05-06 12:36 | 23.32245 | 40.73850 | 36835 ft | 557 kts | 72° |
| 2026-05-06 12:37 | 23.33564 | 40.77824 | 36948 ft | 560 kts | 72° |
| 2026-05-06 12:37 | 23.34872 | 40.81770 | 36985 ft | 561 kts | 72° |
| 2026-05-06 12:37 | 23.37582 | 40.89773 | 36967 ft | 557 kts | 72° |
| 2026-05-06 12:38 | 23.40288 | 40.97595 | 36978 ft | 554 kts | 71° |
| 2026-05-06 12:38 | 23.43010 | 41.05442 | 36980 ft | 554 kts | 71° |
| 2026-05-06 12:39 | 23.45722 | 41.13293 | 36982 ft | 554 kts | 71° |
| 2026-05-06 12:39 | 23.48430 | 41.21159 | 36987 ft | 555 kts | 71° |
| 2026-05-06 12:40 | 23.51144 | 41.29060 | 36986 ft | 557 kts | 71° |
| 2026-05-06 12:40 | 23.53856 | 41.36966 | 36981 ft | 558 kts | 71° |
| 2026-05-06 12:41 | 23.56571 | 41.44897 | 36978 ft | 559 kts | 71° |
| 2026-05-06 12:41 | 23.59269 | 41.52791 | 36981 ft | 559 kts | 71° |
| 2026-05-06 12:42 | 23.61979 | 41.60737 | 36962 ft | 558 kts | 71° |
| 2026-05-06 12:42 | 23.64677 | 41.68665 | 36967 ft | 557 kts | 72° |
| 2026-05-06 12:43 | 23.67368 | 41.76589 | 36977 ft | 557 kts | 72° |
| 2026-05-06 12:43 | 23.69918 | 41.84573 | 36971 ft | 556 kts | 73° |
| 2026-05-06 12:44 | 23.72402 | 41.92565 | 36972 ft | 556 kts | 73° |
| 2026-05-06 12:44 | 23.74927 | 42.00550 | 36962 ft | 556 kts | 72° |
| 2026-05-06 12:45 | 23.77607 | 42.08473 | 36977 ft | 556 kts | 71° |
| 2026-05-06 12:46 | 23.81698 | 42.20281 | 36972 ft | 556 kts | 71° |
| 2026-05-06 12:46 | 23.84398 | 42.28187 | 36987 ft | 556 kts | 71° |
| 2026-05-06 12:47 | 23.87086 | 42.36119 | 36986 ft | 555 kts | 72° |
| 2026-05-06 12:47 | 23.89758 | 42.44014 | 36998 ft | 555 kts | 71° |
| 2026-05-06 12:48 | 23.92438 | 42.51940 | 36992 ft | 556 kts | 71° |
| 2026-05-06 12:48 | 23.95114 | 42.59867 | 37001 ft | 556 kts | 72° |
| 2026-05-06 12:49 | 23.97784 | 42.67792 | 36998 ft | 555 kts | 71° |
| 2026-05-06 12:49 | 24.00448 | 42.75717 | 36995 ft | 555 kts | 72° |
| 2026-05-06 12:50 | 24.03098 | 42.83615 | 36996 ft | 556 kts | 72° |
| 2026-05-06 12:50 | 24.05755 | 42.91557 | 36987 ft | 556 kts | 72° |
| 2026-05-06 12:51 | 24.08382 | 42.99514 | 36986 ft | 556 kts | 72° |
| 2026-05-06 12:51 | 24.10996 | 43.07471 | 36982 ft | 556 kts | 72° |
| 2026-05-06 12:52 | 24.13612 | 43.15441 | 36995 ft | 556 kts | 72° |
| 2026-05-06 12:52 | 24.16228 | 43.23417 | 36966 ft | 557 kts | 72° |
| 2026-05-06 12:53 | 24.18840 | 43.31393 | 36972 ft | 556 kts | 72° |
| 2026-05-06 12:53 | 24.21427 | 43.39311 | 36982 ft | 556 kts | 72° |
| 2026-05-06 12:54 | 24.24032 | 43.47300 | 36980 ft | 555 kts | 72° |
| 2026-05-06 12:54 | 24.26628 | 43.55273 | 36972 ft | 555 kts | 72° |
| 2026-05-06 12:55 | 24.29215 | 43.63241 | 36971 ft | 554 kts | 72° |
| 2026-05-06 12:55 | 24.31792 | 43.71201 | 36974 ft | 554 kts | 72° |
| 2026-05-06 12:56 | 24.34368 | 43.79163 | 36986 ft | 553 kts | 72° |
| 2026-05-06 12:56 | 24.36940 | 43.87131 | 36968 ft | 553 kts | 72° |
| 2026-05-06 12:57 | 24.39485 | 43.95032 | 36982 ft | 553 kts | 72° |
| 2026-05-06 12:57 | 24.42044 | 44.02994 | 36955 ft | 553 kts | 72° |
| 2026-05-06 12:58 | 24.44573 | 44.10985 | 36997 ft | 552 kts | 75° |
| 2026-05-06 12:58 | 24.46280 | 44.19154 | 37004 ft | 549 kts | 83° |
| 2026-05-06 12:59 | 24.47611 | 44.27396 | 36983 ft | 549 kts | 83° |
| 2026-05-06 12:59 | 24.48992 | 44.35639 | 36990 ft | 549 kts | 82° |
| 2026-05-06 13:00 | 24.50412 | 44.43870 | 36971 ft | 548 kts | 82° |
| 2026-05-06 13:00 | 24.51816 | 44.52048 | 36982 ft | 548 kts | 82° |
| 2026-05-06 13:01 | 24.53243 | 44.60333 | 36989 ft | 549 kts | 82° |
| 2026-05-06 13:01 | 24.54657 | 44.68529 | 36976 ft | 549 kts | 82° |
| 2026-05-06 13:02 | 24.56074 | 44.76780 | 36977 ft | 549 kts | 82° |
| 2026-05-06 13:02 | 24.57483 | 44.85025 | 36953 ft | 550 kts | 82° |
| 2026-05-06 13:03 | 24.58654 | 44.91895 | 36967 ft | 549 kts | 82° |
| 2026-05-06 13:03 | 24.60055 | 45.00146 | 36959 ft | 550 kts | 82° |
| 2026-05-06 13:04 | 24.61447 | 45.08407 | 36961 ft | 550 kts | 82° |
| 2026-05-06 13:04 | 24.62834 | 45.16670 | 36960 ft | 549 kts | 82° |
| 2026-05-06 13:05 | 24.64217 | 45.24931 | 36962 ft | 549 kts | 82° |
| 2026-05-06 13:05 | 24.65595 | 45.33189 | 36959 ft | 549 kts | 82° |
| 2026-05-06 13:06 | 24.66959 | 45.41393 | 36958 ft | 548 kts | 82° |
| 2026-05-06 13:06 | 24.68325 | 45.49636 | 36960 ft | 548 kts | 82° |
| 2026-05-06 13:07 | 24.69688 | 45.57892 | 36963 ft | 548 kts | 82° |
| 2026-05-06 13:07 | 24.71048 | 45.66156 | 36959 ft | 548 kts | 82° |
| 2026-05-06 13:08 | 24.72399 | 45.74409 | 36959 ft | 548 kts | 82° |
| 2026-05-06 13:08 | 24.73745 | 45.82670 | 36957 ft | 549 kts | 82° |
| 2026-05-06 13:09 | 24.75087 | 45.90942 | 36957 ft | 550 kts | 82° |
| 2026-05-06 13:09 | 24.76429 | 45.99239 | 36962 ft | 550 kts | 82° |
| 2026-05-06 13:10 | 24.77756 | 46.07470 | 36962 ft | 551 kts | 82° |
| 2026-05-06 13:10 | 24.79091 | 46.15773 | 36961 ft | 551 kts | 82° |
| 2026-05-06 13:11 | 24.80417 | 46.24072 | 36951 ft | 550 kts | 82° |
| 2026-05-06 13:11 | 24.81737 | 46.32353 | 36953 ft | 548 kts | 83° |
| 2026-05-06 13:12 | 24.83050 | 46.40613 | 36952 ft | 546 kts | 83° |
| 2026-05-06 13:12 | 24.84352 | 46.48841 | 36944 ft | 545 kts | 83° |
| 2026-05-06 13:13 | 24.85648 | 46.57057 | 36940 ft | 544 kts | 83° |
| 2026-05-06 13:13 | 24.86929 | 46.65214 | 36937 ft | 543 kts | 83° |
| 2026-05-06 13:14 | 24.88445 | 46.73341 | 36937 ft | 545 kts | 75° |
| 2026-05-06 13:14 | 24.91134 | 46.81168 | 36945 ft | 547 kts | 64° |
| 2026-05-06 13:15 | 24.94769 | 46.88534 | 36947 ft | 548 kts | 60° |
| 2026-05-06 13:15 | 24.98521 | 46.95874 | 36945 ft | 549 kts | 60° |
| 2026-05-06 13:16 | 25.02231 | 47.03253 | 36943 ft | 550 kts | 61° |
| 2026-05-06 13:16 | 25.05906 | 47.10657 | 36941 ft | 550 kts | 61° |
| 2026-05-06 13:17 | 25.09569 | 47.18067 | 36940 ft | 550 kts | 61° |
| 2026-05-06 13:17 | 25.13232 | 47.25477 | 36933 ft | 550 kts | 61° |
| 2026-05-06 13:18 | 25.16868 | 47.32839 | 36923 ft | 550 kts | 61° |
| 2026-05-06 13:18 | 25.20525 | 47.40255 | 36924 ft | 549 kts | 61° |
| 2026-05-06 13:19 | 25.24180 | 47.47679 | 36912 ft | 550 kts | 61° |
| 2026-05-06 13:19 | 25.27826 | 47.55098 | 36917 ft | 549 kts | 61° |
| 2026-05-06 13:20 | 25.31475 | 47.62534 | 36915 ft | 550 kts | 61° |
| 2026-05-06 13:20 | 25.35123 | 47.69982 | 36907 ft | 551 kts | 61° |
| 2026-05-06 13:21 | 25.38752 | 47.77398 | 36902 ft | 551 kts | 62° |
| 2026-05-06 13:21 | 25.42401 | 47.84864 | 36902 ft | 552 kts | 61° |
| 2026-05-06 13:22 | 25.46051 | 47.92348 | 36896 ft | 552 kts | 62° |
| 2026-05-06 13:22 | 25.49696 | 47.99830 | 36895 ft | 552 kts | 62° |
| 2026-05-06 13:23 | 25.53345 | 48.07325 | 36890 ft | 552 kts | 61° |
| 2026-05-06 13:23 | 25.56991 | 48.14825 | 36886 ft | 553 kts | 61° |
| 2026-05-06 13:24 | 25.60610 | 48.22283 | 36886 ft | 553 kts | 62° |
| 2026-05-06 13:24 | 25.64246 | 48.29792 | 36882 ft | 552 kts | 62° |
| 2026-05-06 13:25 | 25.67286 | 48.37562 | 36881 ft | 549 kts | 77° |
| 2026-05-06 13:25 | 25.68305 | 48.45890 | 36878 ft | 542 kts | 95° |
| 2026-05-06 13:26 | 25.67758 | 48.54191 | 36874 ft | 539 kts | 99° |
| 2026-05-06 13:26 | 25.67113 | 48.62486 | 36874 ft | 541 kts | 99° |
| 2026-05-06 13:27 | 25.66538 | 48.70810 | 36857 ft | 542 kts | 98° |
| 2026-05-06 13:27 | 25.66005 | 48.79096 | 36863 ft | 542 kts | 98° |
| 2026-05-06 13:28 | 25.65467 | 48.87435 | 36848 ft | 542 kts | 98° |
| 2026-05-06 13:28 | 25.64917 | 48.95788 | 36855 ft | 542 kts | 98° |
| 2026-05-06 13:29 | 25.64360 | 49.04130 | 36850 ft | 542 kts | 98° |
| 2026-05-06 13:29 | 25.63798 | 49.12466 | 36854 ft | 542 kts | 98° |
| 2026-05-06 13:30 | 25.63236 | 49.20747 | 36843 ft | 542 kts | 98° |
| 2026-05-06 13:30 | 25.62667 | 49.29073 | 36837 ft | 541 kts | 98° |
| 2026-05-06 13:31 | 25.62091 | 49.37380 | 36843 ft | 540 kts | 98° |
| 2026-05-06 13:31 | 25.61504 | 49.45667 | 36830 ft | 539 kts | 98° |
| 2026-05-06 13:32 | 25.60912 | 49.53969 | 36831 ft | 539 kts | 98° |
| 2026-05-06 13:32 | 25.60322 | 49.62189 | 36836 ft | 538 kts | 98° |
| 2026-05-06 13:33 | 25.59725 | 49.70462 | 36836 ft | 538 kts | 98° |
| 2026-05-06 13:33 | 25.59123 | 49.78723 | 36832 ft | 538 kts | 98° |
| 2026-05-06 13:34 | 25.58517 | 49.86979 | 36831 ft | 537 kts | 98° |
| 2026-05-06 13:34 | 25.57908 | 49.95219 | 36835 ft | 536 kts | 98° |
| 2026-05-06 13:35 | 25.57295 | 50.03448 | 36835 ft | 535 kts | 98° |
| 2026-05-06 13:35 | 25.56679 | 50.11662 | 36836 ft | 535 kts | 98° |
| 2026-05-06 13:36 | 25.55616 | 50.19767 | 36843 ft | 529 kts | 108° |
| 2026-05-06 13:36 | 25.53434 | 50.27442 | 36838 ft | 524 kts | 114° |
| 2026-05-06 13:37 | 25.51029 | 50.35077 | 36807 ft | 526 kts | 113° |
| 2026-05-06 13:37 | 25.48670 | 50.42744 | 36831 ft | 526 kts | 113° |
| 2026-05-06 13:38 | 25.46331 | 50.50435 | 36818 ft | 527 kts | 113° |
| 2026-05-06 13:38 | 25.43985 | 50.58128 | 36815 ft | 528 kts | 113° |
| 2026-05-06 13:39 | 25.41573 | 50.65800 | 36803 ft | 527 kts | 115° |
| 2026-05-06 13:39 | 25.38896 | 50.73282 | 36799 ft | 526 kts | 116° |
| 2026-05-06 13:40 | 25.36221 | 50.80658 | 36088 ft | 501 kts | 116° |
| 2026-05-06 13:40 | 25.34962 | 50.84192 | 35232 ft | 490 kts | 116° |
| 2026-05-06 13:40 | 25.33721 | 50.87686 | 34195 ft | 486 kts | 115° |
| 2026-05-06 13:40 | 25.32489 | 50.91160 | 33037 ft | 483 kts | 115° |
| 2026-05-06 13:41 | 25.31268 | 50.94603 | 31922 ft | 478 kts | 115° |
| 2026-05-06 13:41 | 25.30061 | 50.98003 | 30859 ft | 472 kts | 115° |
| 2026-05-06 13:41 | 25.28869 | 51.01360 | 29883 ft | 465 kts | 116° |
| 2026-05-06 13:41 | 25.27697 | 51.04654 | 28834 ft | 455 kts | 115° |
| 2026-05-06 13:42 | 25.26773 | 51.07968 | 27800 ft | 450 kts | 101° |
| 2026-05-06 13:42 | 25.26695 | 51.11398 | 26802 ft | 444 kts | 88° |
| 2026-05-06 13:42 | 25.26874 | 51.14775 | 25886 ft | 435 kts | 89° |
| 2026-05-06 13:42 | 25.26964 | 51.18043 | 24999 ft | 426 kts | 90° |
| 2026-05-06 13:43 | 25.26691 | 51.21247 | 24084 ft | 415 kts | 108° |
| 2026-05-06 13:43 | 25.25484 | 51.24081 | 23150 ft | 403 kts | 128° |
| 2026-05-06 13:43 | 25.23634 | 51.26344 | 22112 ft | 392 kts | 141° |
| 2026-05-06 13:43 | 25.21453 | 51.28059 | 21151 ft | 381 kts | 155° |
| 2026-05-06 13:44 | 25.19032 | 51.29169 | 20179 ft | 373 kts | 162° |
| 2026-05-06 13:44 | 25.16622 | 51.30169 | 19231 ft | 368 kts | 160° |
| 2026-05-06 13:44 | 25.14250 | 51.31179 | 18324 ft | 363 kts | 160° |
| 2026-05-06 13:44 | 25.11904 | 51.32201 | 17383 ft | 362 kts | 159° |
| 2026-05-06 13:45 | 25.09578 | 51.33230 | 16588 ft | 355 kts | 158° |
| 2026-05-06 13:45 | 25.05055 | 51.35233 | 14684 ft | 348 kts | 158° |
| 2026-05-06 13:45 | 25.02841 | 51.36212 | 13768 ft | 346 kts | 158° |
| 2026-05-06 13:46 | 25.00614 | 51.37196 | 12791 ft | 343 kts | 158° |
| 2026-05-06 13:46 | 24.98371 | 51.38187 | 12112 ft | 349 kts | 158° |
| 2026-05-06 13:46 | 24.96247 | 51.39370 | 11514 ft | 343 kts | 140° |
| 2026-05-06 13:46 | 24.94728 | 51.41360 | 11117 ft | 338 kts | 116° |
| 2026-05-06 13:47 | 24.94006 | 51.43786 | 10799 ft | 331 kts | 95° |
| 2026-05-06 13:47 | 24.93974 | 51.46290 | 10484 ft | 325 kts | 80° |
| 2026-05-06 13:47 | 24.94608 | 51.48648 | 10110 ft | 321 kts | 65° |
| 2026-05-06 13:47 | 24.95482 | 51.50897 | 9760 ft | 319 kts | 65° |
| 2026-05-06 13:48 | 24.96339 | 51.53147 | 9396 ft | 316 kts | 65° |
| 2026-05-06 13:48 | 24.97475 | 51.55176 | 8876 ft | 312 kts | 43° |
| 2026-05-06 13:48 | 24.99231 | 51.56444 | 8645 ft | 297 kts | 20° |
| 2026-05-06 13:48 | 25.01223 | 51.56901 | 8496 ft | 289 kts | 4° |
| 2026-05-06 13:49 | 25.03193 | 51.56749 | 8272 ft | 282 kts | 345° |
| 2026-05-06 13:49 | 25.04412 | 51.56273 | 8158 ft | 278 kts | 339° |
| 2026-05-06 13:49 | 25.06753 | 51.55190 | 7844 ft | 272 kts | 339° |
| 2026-05-06 13:49 | 25.08503 | 51.54395 | 7496 ft | 272 kts | 340° |
| 2026-05-06 13:50 | 25.10253 | 51.53611 | 7226 ft | 270 kts | 339° |
| 2026-05-06 13:50 | 25.11995 | 51.52836 | 6901 ft | 270 kts | 340° |
| 2026-05-06 13:50 | 25.13739 | 51.52064 | 6558 ft | 270 kts | 340° |
| 2026-05-06 13:50 | 25.15482 | 51.51293 | 6283 ft | 269 kts | 340° |
| 2026-05-06 13:51 | 25.17204 | 51.50533 | 6073 ft | 264 kts | 339° |
| 2026-05-06 13:51 | 25.18326 | 51.50038 | 5956 ft | 260 kts | 339° |
| 2026-05-06 13:51 | 25.19986 | 51.49304 | 5715 ft | 256 kts | 340° |
| 2026-05-06 13:51 | 25.21636 | 51.48575 | 5435 ft | 254 kts | 340° |
| 2026-05-06 13:52 | 25.23272 | 51.47853 | 5178 ft | 251 kts | 341° |
| 2026-05-06 13:52 | 25.24883 | 51.47141 | 4875 ft | 250 kts | 340° |
| 2026-05-06 13:52 | 25.26504 | 51.46426 | 4479 ft | 253 kts | 340° |
| 2026-05-06 13:52 | 25.28138 | 51.45706 | 4134 ft | 253 kts | 340° |
| 2026-05-06 13:53 | 25.29757 | 51.44989 | 3883 ft | 248 kts | 340° |
| 2026-05-06 13:53 | 25.31356 | 51.44281 | 3559 ft | 247 kts | 340° |
| 2026-05-06 13:53 | 25.32947 | 51.43577 | 3321 ft | 242 kts | 340° |
| 2026-05-06 13:53 | 25.34491 | 51.42892 | 3098 ft | 237 kts | 340° |
| 2026-05-06 13:54 | 25.36017 | 51.42219 | 2819 ft | 235 kts | 340° |
| 2026-05-06 13:54 | 25.37514 | 51.41557 | 2610 ft | 226 kts | 341° |
| 2026-05-06 13:54 | 25.38933 | 51.40925 | 2556 ft | 219 kts | 341° |
| 2026-05-06 13:54 | 25.40353 | 51.40298 | 2504 ft | 219 kts | 340° |
| 2026-05-06 13:55 | 25.41760 | 51.39676 | 2489 ft | 217 kts | 340° |
| 2026-05-06 13:55 | 25.43168 | 51.39054 | 2486 ft | 219 kts | 340° |
| 2026-05-06 13:55 | 25.44585 | 51.38426 | 2490 ft | 216 kts | 341° |
| 2026-05-06 13:55 | 25.45989 | 51.38255 | 2462 ft | 197 kts | 18° |
| 2026-05-06 13:56 | 25.47128 | 51.39109 | 2507 ft | 204 kts | 49° |
| 2026-05-06 13:56 | 25.47827 | 51.40454 | 2484 ft | 201 kts | 68° |
| 2026-05-06 13:56 | 25.47989 | 51.41940 | 2470 ft | 199 kts | 95° |
| 2026-05-06 13:56 | 25.47763 | 51.43461 | 2492 ft | 202 kts | 96° |
| 2026-05-06 13:57 | 25.47555 | 51.45003 | 2481 ft | 203 kts | 95° |
| 2026-05-06 13:57 | 25.47347 | 51.46549 | 2493 ft | 200 kts | 96° |
| 2026-05-06 13:57 | 25.47144 | 51.48068 | 2468 ft | 199 kts | 96° |
| 2026-05-06 13:57 | 25.46941 | 51.49578 | 2482 ft | 199 kts | 96° |
| 2026-05-06 13:58 | 25.46737 | 51.51095 | 2476 ft | 200 kts | 96° |
| 2026-05-06 13:58 | 25.46400 | 51.52577 | 2460 ft | 201 kts | 117° |
| 2026-05-06 13:58 | 25.45376 | 51.53628 | 2469 ft | 201 kts | 148° |
| 2026-05-06 13:58 | 25.44189 | 51.54332 | 2500 ft | 189 kts | 149° |
| 2026-05-06 13:59 | 25.43032 | 51.54925 | 2458 ft | 176 kts | 154° |
| 2026-05-06 13:59 | 25.41938 | 51.55423 | 2450 ft | 164 kts | 155° |
| 2026-05-06 13:59 | 25.40880 | 51.55897 | 2249 ft | 165 kts | 155° |
| 2026-05-06 13:59 | 25.39811 | 51.56372 | 2045 ft | 166 kts | 156° |
| 2026-05-06 14:00 | 25.38747 | 51.56842 | 1840 ft | 167 kts | 155° |
| 2026-05-06 14:00 | 25.37674 | 51.57317 | 1619 ft | 165 kts | 156° |
| 2026-05-06 14:00 | 25.36617 | 51.57785 | 1424 ft | 162 kts | 156° |
| 2026-05-06 14:00 | 25.35573 | 51.58248 | 1219 ft | 161 kts | 156° |
| 2026-05-06 14:01 | 25.34532 | 51.58709 | 981 ft | 161 kts | 157° |
| 2026-05-06 14:01 | 25.33506 | 51.59152 | 776 ft | 158 kts | 156° |
| 2026-05-06 14:01 | 25.32490 | 51.59604 | 647 ft | 159 kts | 154° |
| 2026-05-06 14:01 | 25.31460 | 51.60083 | 435 ft | 162 kts | 155° |
| 2026-05-06 14:02 | 25.30411 | 51.60531 | 221 ft | 159 kts | 156° |
| 2026-05-06 14:02 | 25.29402 | 51.60988 | 39 ft | 154 kts | 155° |
| 2026-05-06 14:02 | 25.28503 | 51.61392 | 30 ft | 119 kts | 158° |
| 2026-05-06 14:02 | 25.27906 | 51.61655 | 28 ft | 66 kts | 159° |
| 2026-05-06 14:03 | 25.27603 | 51.61788 | 28 ft | 43 kts | 158° |
| 2026-05-06 14:03 | 25.27390 | 51.61882 | 27 ft | 41 kts | 159° |
| 2026-05-06 14:03 | 25.27131 | 51.61996 | 30 ft | 39 kts | 158° |
| 2026-05-06 14:03 | 25.26880 | 51.62073 | 27 ft | 37 kts | 176° |
| 2026-05-06 14:04 | 25.26705 | 51.62056 | 29 ft | 16 kts | 188° |
| 2026-05-06 14:04 | 25.26599 | 51.62038 | 26 ft | 15 kts | 198° |
| 2026-05-06 14:04 | 25.26548 | 51.61952 | 27 ft | 13 kts | 249° |
| 2026-05-06 14:04 | 25.26497 | 51.61876 | 27 ft | 13 kts | 200° |
| 2026-05-06 14:05 | 25.26410 | 51.61896 | 27 ft | 13 kts | 160° |
| 2026-05-06 14:05 | 25.26326 | 51.61933 | 27 ft | 13 kts | 158° |
| 2026-05-06 14:05 | 25.26243 | 51.61969 | 27 ft | 10 kts | 159° |
| 2026-05-06 14:05 | 25.26195 | 51.61946 | 27 ft | 9 kts | 253° |
| 2026-05-06 14:06 | 25.26231 | 51.61899 | 27 ft | 7 kts | 318° |
| 2026-05-06 14:06 | 25.26247 | 51.61874 | 27 ft | 2 kts | 304° |
| 2026-05-06 14:06 | 25.26250 | 51.61868 | 27 ft | 0 kts | 303° |
| 2026-05-06 14:06 | 25.26251 | 51.61868 | 27 ft | 0 kts | 303° |